Flight Track Log - Related Links

Times and Time Zones

All times are in EDT time to prevent confusion due to time zone crossing. See the JBU1781 flight status page for this flight to view local times or setup timezone preferences in your user account.


Time Position Orientation Groundspeed Altitude Reporting Facility
EDT Latitude Longitude Course Direction KTS MPH feet Rate Location/Type
Sun 02:07:10 PM 28.4167 -81.3167 139° Southeast 153 176 700  Level Orlando TRACON
Sun 02:08:22 PM 28.3667 -81.2667 139° Southeast 212 244 2,600 1,909 Climbing Orlando TRACON
Sun 02:09:22 PM 28.3667 -81.1833 90° East 281 323 4,900 2,731 Climbing Orlando TRACON
Sun 02:10:00 PM 28.1356 -80.9617 139° Southeast  Level Estimated
Sun 02:10:58 PM 28.3689 -81.0467 89° East 308 354 9,700  Level Miami Center
Sun 02:11:00 PM 28.0620 -80.8752 139° Southeast  Level Estimated
Sun 02:11:58 PM 28.3614 -80.9428 95° East 313 360 12,400  Level Miami Center
Sun 02:12:00 PM 27.9883 -80.7888 139° Southeast  Level Estimated
Sun 02:12:58 PM 28.3725 -80.8464 83° East 328 377 14,100  Level Miami Center
Sun 02:13:58 PM 28.3928 -80.7125 80° East 360 414 14,000 400 Descending Miami Center
Sun 02:14:58 PM 28.3458 -80.6050 116° Southeast 358 412 14,900 1,550 Climbing Miami Center
Sun 02:15:58 PM 28.2767 -80.5247 134° Southeast 367 422 17,100 2,000 Climbing Miami Center
Sun 02:16:58 PM 28.2000 -80.4306 133° Southeast 387 445 18,900 2,150 Climbing Miami Center
Sun 02:17:58 PM 28.1106 -80.3242 134° Southeast 405 466 21,400 2,050 Climbing Miami Center
Sun 02:18:58 PM 28.0317 -80.2253 132° Southeast 418 481 23,000 800 Climbing Miami Center
Sun 02:19:58 PM 27.9483 -80.1286 134° Southeast 423 487 23,000  Level Miami Center
Sun 02:20:58 PM 27.8772 -80.0397 132° Southeast 423 487 23,000  Level Miami Center
Sun 02:21:58 PM 27.7814 -79.9292 134° Southeast 429 494 23,000  Level Miami Center
Sun 02:22:58 PM 27.7042 -79.8333 132° Southeast 429 494 23,000  Level Miami Center
Sun 02:23:58 PM 27.6206 -79.7350 134° Southeast 429 494 23,000  Level Miami Center
Sun 02:24:58 PM 27.5219 -79.6553 144° Southeast 437 503 23,000  Level Miami Center
Sun 02:25:58 PM 27.4356 -79.5806 142° Southeast 437 503 23,000  Level Miami Center
Sun 02:26:58 PM 27.3286 -79.4917 144° Southeast 437 503 23,000  Level Miami Center
Sun 02:27:58 PM 27.2428 -79.3939 135° Southeast 442 509 23,000  Level Miami Center
Sun 02:28:58 PM 27.1631 -79.2939 132° Southeast 437 503 23,000  Level Miami Center
Sun 02:29:58 PM 27.0914 -79.2014 131° Southeast 437 503 23,000  Level Miami Center
Sun 02:30:58 PM 27.0094 -79.0997 132° Southeast 437 503 23,000  Level Miami Center
Sun 02:31:58 PM 26.9275 -78.9978 132° Southeast 437 503 23,000  Level Miami Center
Sun 02:32:58 PM 26.8475 -78.8986 132° Southeast 437 503 23,000  Level Miami Center
Sun 02:33:58 PM 26.7653 -78.7972 132° Southeast 437 503 23,000  Level Miami Center
Sun 02:34:58 PM 26.6831 -78.6958 132° Southeast 437 503 23,000  Level Miami Center
Sun 02:35:58 PM 26.5925 -78.5806 131° Southeast 432 497 23,000  Level Miami Center
Sun 02:36:58 PM 26.5100 -78.4886 135° Southeast 432 497 23,000  Level Miami Center
Sun 02:37:58 PM 26.4253 -78.3856 133° Southeast 432 497 23,000  Level Miami Center
Sun 02:38:58 PM 26.3450 -78.2872 132° Southeast 432 497 23,000 -300 Level Miami Center
Sun 02:39:58 PM 26.2622 -78.1817 131° Southeast 432 497 22,400 -1,000 Descending Miami Center
Sun 02:40:58 PM 26.1797 -78.0836 133° Southeast 432 497 21,000 -1,350 Descending Miami Center
Sun 02:41:58 PM 26.1031 -77.9903 132° Southeast 426 490 19,700 -1,250 Descending Miami Center
Sun 02:42:58 PM 26.0264 -77.8969 132° Southeast 414 476 18,500 -1,400 Descending Miami Center
Sun 02:43:58 PM 25.9519 -77.8039 132° Southeast 409 471 16,900 -1,750 Descending Miami Center
Sun 02:44:58 PM 25.8792 -77.7203 134° Southeast 391 450 15,000 -1,800 Descending Miami Center
Sun 02:45:58 PM 25.8086 -77.6319 132° Southeast 385 443 13,300 -1,000 Descending Miami Center
Sun 02:46:58 PM 25.7464 -77.5600 134° Southeast 375 432 13,000 -150 Descending Miami Center
Sun 02:47:58 PM 25.6797 -77.4928 138° Southeast 348 400 13,000 -850 Level Miami Center
Sun 02:48:58 PM 25.5919 -77.4969 182° South 297 342 11,300 -1,700 Descending Miami Center

Login

Don't have an account? Register now (free) for customized features, flight alerts, and more!